sensor_id;sensor_type;location;lat;lon;timestamp;P1;durP1;ratioP1;P2;durP2;ratioP2
55290;SDS011;41155;39.768;2.712;2023-02-28T00:00:33;12.73;;;11.20;;
55290;SDS011;41155;39.768;2.712;2023-02-28T00:02:59;13.50;;;9.77;;
55290;SDS011;41155;39.768;2.712;2023-02-28T00:05:25;17.25;;;12.55;;
55290;SDS011;41155;39.768;2.712;2023-02-28T00:07:52;20.23;;;11.38;;
55290;SDS011;41155;39.768;2.712;2023-02-28T00:10:18;21.25;;;11.63;;
55290;SDS011;41155;39.768;2.712;2023-02-28T00:12:47;16.10;;;11.60;;
55290;SDS011;41155;39.768;2.712;2023-02-28T00:15:14;22.75;;;11.75;;
55290;SDS011;41155;39.768;2.712;2023-02-28T00:17:40;23.65;;;11.98;;
55290;SDS011;41155;39.768;2.712;2023-02-28T00:20:05;21.05;;;13.15;;
55290;SDS011;41155;39.768;2.712;2023-02-28T00:22:40;24.40;;;12.25;;
55290;SDS011;41155;39.768;2.712;2023-02-28T00:25:08;21.45;;;12.25;;
55290;SDS011;41155;39.768;2.712;2023-02-28T00:27:35;14.23;;;11.00;;
55290;SDS011;41155;39.768;2.712;2023-02-28T00:30:02;18.85;;;12.10;;
55290;SDS011;41155;39.768;2.712;2023-02-28T00:32:28;16.40;;;11.05;;
55290;SDS011;41155;39.768;2.712;2023-02-28T00:34:54;19.75;;;12.43;;
55290;SDS011;41155;39.768;2.712;2023-02-28T00:37:20;17.13;;;11.23;;
55290;SDS011;41155;39.768;2.712;2023-02-28T00:39:46;24.95;;;11.50;;
55290;SDS011;41155;39.768;2.712;2023-02-28T00:42:11;19.42;;;11.98;;
55290;SDS011;41155;39.768;2.712;2023-02-28T00:44:37;21.35;;;12.55;;
55290;SDS011;41155;39.768;2.712;2023-02-28T00:47:02;21.88;;;12.98;;
55290;SDS011;41155;39.768;2.712;2023-02-28T00:49:28;24.08;;;12.50;;
55290;SDS011;41155;39.768;2.712;2023-02-28T00:51:55;20.33;;;12.73;;
55290;SDS011;41155;39.768;2.712;2023-02-28T00:54:21;18.77;;;12.13;;
55290;SDS011;41155;39.768;2.712;2023-02-28T00:56:47;25.15;;;15.02;;
55290;SDS011;41155;39.768;2.712;2023-02-28T00:59:14;21.38;;;12.85;;
55290;SDS011;41155;39.768;2.712;2023-02-28T01:01:41;16.02;;;12.20;;
55290;SDS011;41155;39.768;2.712;2023-02-28T01:04:07;20.27;;;12.55;;
55290;SDS011;41155;39.768;2.712;2023-02-28T01:06:33;22.98;;;14.07;;
55290;SDS011;41155;39.768;2.712;2023-02-28T01:08:59;28.60;;;13.90;;
55290;SDS011;41155;39.768;2.712;2023-02-28T01:11:25;21.98;;;13.55;;
55290;SDS011;41155;39.768;2.712;2023-02-28T01:13:51;26.38;;;13.07;;
55290;SDS011;41155;39.768;2.712;2023-02-28T01:16:16;22.75;;;12.30;;
55290;SDS011;41155;39.768;2.712;2023-02-28T01:18:42;22.35;;;12.88;;
55290;SDS011;41155;39.768;2.712;2023-02-28T01:21:10;21.38;;;12.90;;
55290;SDS011;41155;39.768;2.712;2023-02-28T01:23:38;18.33;;;11.77;;
55290;SDS011;41155;39.768;2.712;2023-02-28T01:26:08;11.75;;;10.52;;
55290;SDS011;41155;39.768;2.712;2023-02-28T01:28:44;16.25;;;11.68;;
55290;SDS011;41155;39.768;2.712;2023-02-28T01:31:10;14.50;;;10.90;;
55290;SDS011;41155;39.768;2.712;2023-02-28T01:33:37;24.98;;;11.73;;
55290;SDS011;41155;39.768;2.712;2023-02-28T01:36:13;17.95;;;11.48;;
55290;SDS011;41155;39.768;2.712;2023-02-28T01:38:44;15.50;;;12.82;;
55290;SDS011;41155;39.768;2.712;2023-02-28T01:41:12;18.15;;;12.30;;
55290;SDS011;41155;39.768;2.712;2023-02-28T01:43:55;17.70;;;11.32;;
55290;SDS011;41155;39.768;2.712;2023-02-28T01:46:28;13.80;;;11.48;;
55290;SDS011;41155;39.768;2.712;2023-02-28T01:49:02;22.60;;;13.38;;
55290;SDS011;41155;39.768;2.712;2023-02-28T01:54:11;32.22;;;12.77;;
55290;SDS011;41155;39.768;2.712;2023-02-28T01:56:41;19.50;;;11.73;;
55290;SDS011;41155;39.768;2.712;2023-02-28T01:59:11;18.77;;;10.75;;
55290;SDS011;41155;39.768;2.712;2023-02-28T02:01:40;18.92;;;11.82;;
55290;SDS011;41155;39.768;2.712;2023-02-28T02:04:05;14.63;;;11.90;;
55290;SDS011;41155;39.768;2.712;2023-02-28T02:06:34;15.75;;;10.77;;
55290;SDS011;41155;39.768;2.712;2023-02-28T02:09:03;19.35;;;13.43;;
55290;SDS011;41155;39.768;2.712;2023-02-28T02:11:29;30.13;;;13.18;;
55290;SDS011;41155;39.768;2.712;2023-02-28T02:17:10;26.33;;;12.73;;
55290;SDS011;41155;39.768;2.712;2023-02-28T02:36:38;33.22;;;11.85;;
55290;SDS011;41155;39.768;2.712;2023-02-28T02:41:41;17.38;;;10.93;;
55290;SDS011;41155;39.768;2.712;2023-02-28T02:44:15;14.70;;;10.50;;
55290;SDS011;41155;39.768;2.712;2023-02-28T02:46:48;17.52;;;11.30;;
55290;SDS011;41155;39.768;2.712;2023-02-28T02:49:19;17.60;;;10.48;;
55290;SDS011;41155;39.768;2.712;2023-02-28T02:51:51;16.58;;;10.50;;
55290;SDS011;41155;39.768;2.712;2023-02-28T02:54:52;15.88;;;10.02;;
55290;SDS011;41155;39.768;2.712;2023-02-28T02:57:19;11.10;;;9.18;;
55290;SDS011;41155;39.768;2.712;2023-02-28T02:59:54;15.32;;;10.57;;
55290;SDS011;41155;39.768;2.712;2023-02-28T03:02:21;10.18;;;9.32;;
55290;SDS011;41155;39.768;2.712;2023-02-28T03:04:50;18.58;;;10.45;;
55290;SDS011;41155;39.768;2.712;2023-02-28T03:07:19;11.30;;;8.55;;
55290;SDS011;41155;39.768;2.712;2023-02-28T03:09:55;9.57;;;8.55;;
55290;SDS011;41155;39.768;2.712;2023-02-28T03:12:23;19.38;;;8.70;;
55290;SDS011;41155;39.768;2.712;2023-02-28T03:18:10;20.27;;;9.93;;
55290;SDS011;41155;39.768;2.712;2023-02-28T03:21:00;20.02;;;9.52;;
55290;SDS011;41155;39.768;2.712;2023-02-28T03:26:29;20.17;;;9.20;;
55290;SDS011;41155;39.768;2.712;2023-02-28T03:29:03;14.30;;;8.60;;
55290;SDS011;41155;39.768;2.712;2023-02-28T03:31:41;17.08;;;8.35;;
55290;SDS011;41155;39.768;2.712;2023-02-28T03:34:23;18.17;;;9.57;;
55290;SDS011;41155;39.768;2.712;2023-02-28T03:36:55;22.70;;;9.40;;
55290;SDS011;41155;39.768;2.712;2023-02-28T03:39:28;17.27;;;8.90;;
55290;SDS011;41155;39.768;2.712;2023-02-28T03:42:04;18.17;;;10.90;;
55290;SDS011;41155;39.768;2.712;2023-02-28T03:44:44;14.07;;;9.65;;
55290;SDS011;41155;39.768;2.712;2023-02-28T03:47:36;9.32;;;8.30;;
55290;SDS011;41155;39.768;2.712;2023-02-28T03:50:13;18.38;;;9.23;;
55290;SDS011;41155;39.768;2.712;2023-02-28T03:53:11;14.23;;;8.90;;
55290;SDS011;41155;39.768;2.712;2023-02-28T03:55:40;11.25;;;7.93;;
55290;SDS011;41155;39.768;2.712;2023-02-28T03:58:47;14.48;;;8.70;;
55290;SDS011;41155;39.768;2.712;2023-02-28T04:03:47;17.77;;;9.35;;
55290;SDS011;41155;39.768;2.712;2023-02-28T04:06:16;16.33;;;8.88;;
55290;SDS011;41155;39.768;2.712;2023-02-28T04:08:44;13.82;;;8.23;;
55290;SDS011;41155;39.768;2.712;2023-02-28T04:11:30;8.63;;;7.82;;
55290;SDS011;41155;39.768;2.712;2023-02-28T04:13:57;14.13;;;8.38;;
55290;SDS011;41155;39.768;2.712;2023-02-28T04:16:23;10.85;;;8.25;;
55290;SDS011;41155;39.768;2.712;2023-02-28T04:18:48;14.07;;;8.88;;
55290;SDS011;41155;39.768;2.712;2023-02-28T04:21:14;19.63;;;9.32;;
55290;SDS011;41155;39.768;2.712;2023-02-28T04:23:39;19.92;;;9.98;;
55290;SDS011;41155;39.768;2.712;2023-02-28T04:26:05;12.98;;;8.63;;
55290;SDS011;41155;39.768;2.712;2023-02-28T04:28:31;16.38;;;8.50;;
55290;SDS011;41155;39.768;2.712;2023-02-28T04:30:57;25.10;;;9.25;;
55290;SDS011;41155;39.768;2.712;2023-02-28T04:33:25;18.70;;;9.55;;
55290;SDS011;41155;39.768;2.712;2023-02-28T04:36:03;14.68;;;10.35;;
55290;SDS011;41155;39.768;2.712;2023-02-28T04:38:37;18.65;;;10.35;;
55290;SDS011;41155;39.768;2.712;2023-02-28T04:41:04;13.10;;;8.75;;
55290;SDS011;41155;39.768;2.712;2023-02-28T04:43:31;26.90;;;10.50;;
55290;SDS011;41155;39.768;2.712;2023-02-28T04:45:58;20.48;;;9.55;;
55290;SDS011;41155;39.768;2.712;2023-02-28T04:48:29;20.23;;;9.77;;
55290;SDS011;41155;39.768;2.712;2023-02-28T04:51:00;12.77;;;9.00;;
55290;SDS011;41155;39.768;2.712;2023-02-28T04:53:27;11.35;;;8.88;;
55290;SDS011;41155;39.768;2.712;2023-02-28T04:55:54;17.30;;;8.70;;
55290;SDS011;41155;39.768;2.712;2023-02-28T04:58:19;11.85;;;9.05;;
55290;SDS011;41155;39.768;2.712;2023-02-28T05:00:48;22.33;;;10.48;;
55290;SDS011;41155;39.768;2.712;2023-02-28T05:03:13;21.40;;;10.70;;
55290;SDS011;41155;39.768;2.712;2023-02-28T05:05:39;52.60;;;13.27;;
55290;SDS011;41155;39.768;2.712;2023-02-28T05:08:04;38.72;;;12.27;;
55290;SDS011;41155;39.768;2.712;2023-02-28T05:10:30;30.92;;;12.60;;
55290;SDS011;41155;39.768;2.712;2023-02-28T05:12:56;25.05;;;13.55;;
55290;SDS011;41155;39.768;2.712;2023-02-28T05:15:22;63.60;;;18.17;;
55290;SDS011;41155;39.768;2.712;2023-02-28T05:17:47;63.13;;;16.33;;
55290;SDS011;41155;39.768;2.712;2023-02-28T05:20:13;79.55;;;17.17;;
55290;SDS011;41155;39.768;2.712;2023-02-28T05:22:39;72.95;;;15.60;;
55290;SDS011;41155;39.768;2.712;2023-02-28T05:25:05;55.72;;;15.77;;
55290;SDS011;41155;39.768;2.712;2023-02-28T05:27:31;42.85;;;13.50;;
55290;SDS011;41155;39.768;2.712;2023-02-28T05:29:57;66.13;;;14.55;;
55290;SDS011;41155;39.768;2.712;2023-02-28T05:32:24;51.35;;;13.70;;
55290;SDS011;41155;39.768;2.712;2023-02-28T05:34:49;43.47;;;16.80;;
55290;SDS011;41155;39.768;2.712;2023-02-28T05:37:15;64.28;;;16.33;;
55290;SDS011;41155;39.768;2.712;2023-02-28T05:39:41;39.40;;;14.32;;
55290;SDS011;41155;39.768;2.712;2023-02-28T05:42:07;46.58;;;13.65;;
55290;SDS011;41155;39.768;2.712;2023-02-28T05:44:33;46.03;;;13.93;;
55290;SDS011;41155;39.768;2.712;2023-02-28T05:46:58;66.22;;;16.85;;
55290;SDS011;41155;39.768;2.712;2023-02-28T05:49:24;69.85;;;16.55;;
55290;SDS011;41155;39.768;2.712;2023-02-28T05:51:50;74.45;;;19.33;;
55290;SDS011;41155;39.768;2.712;2023-02-28T05:54:15;59.38;;;16.13;;
55290;SDS011;41155;39.768;2.712;2023-02-28T05:56:41;83.45;;;20.25;;
55290;SDS011;41155;39.768;2.712;2023-02-28T05:59:09;43.63;;;15.82;;
55290;SDS011;41155;39.768;2.712;2023-02-28T06:01:39;54.88;;;17.25;;
55290;SDS011;41155;39.768;2.712;2023-02-28T06:04:08;65.35;;;19.98;;
55290;SDS011;41155;39.768;2.712;2023-02-28T06:06:36;56.40;;;16.30;;
55290;SDS011;41155;39.768;2.712;2023-02-28T06:09:02;52.30;;;14.38;;
55290;SDS011;41155;39.768;2.712;2023-02-28T06:11:31;45.10;;;14.15;;
55290;SDS011;41155;39.768;2.712;2023-02-28T06:13:57;52.58;;;15.27;;
55290;SDS011;41155;39.768;2.712;2023-02-28T06:16:25;56.55;;;15.65;;
55290;SDS011;41155;39.768;2.712;2023-02-28T06:18:51;49.47;;;15.65;;
55290;SDS011;41155;39.768;2.712;2023-02-28T06:21:18;50.70;;;15.30;;
55290;SDS011;41155;39.768;2.712;2023-02-28T06:23:43;47.50;;;14.35;;
55290;SDS011;41155;39.768;2.712;2023-02-28T06:26:09;52.50;;;15.80;;
55290;SDS011;41155;39.768;2.712;2023-02-28T06:28:35;50.45;;;13.73;;
55290;SDS011;41155;39.768;2.712;2023-02-28T06:31:08;51.42;;;14.65;;
55290;SDS011;41155;39.768;2.712;2023-02-28T06:33:35;57.63;;;15.50;;
55290;SDS011;41155;39.768;2.712;2023-02-28T06:36:02;62.38;;;16.13;;
55290;SDS011;41155;39.768;2.712;2023-02-28T06:38:28;59.63;;;16.42;;
55290;SDS011;41155;39.768;2.712;2023-02-28T06:40:54;55.47;;;15.60;;
55290;SDS011;41155;39.768;2.712;2023-02-28T06:43:21;63.13;;;16.98;;
55290;SDS011;41155;39.768;2.712;2023-02-28T06:45:48;63.75;;;18.17;;
55290;SDS011;41155;39.768;2.712;2023-02-28T06:48:13;53.72;;;16.10;;
55290;SDS011;41155;39.768;2.712;2023-02-28T06:50:38;54.67;;;15.45;;
55290;SDS011;41155;39.768;2.712;2023-02-28T06:53:04;63.00;;;17.13;;
55290;SDS011;41155;39.768;2.712;2023-02-28T06:55:29;54.50;;;17.55;;
55290;SDS011;41155;39.768;2.712;2023-02-28T06:57:55;68.68;;;16.60;;
55290;SDS011;41155;39.768;2.712;2023-02-28T07:00:20;75.78;;;17.77;;
55290;SDS011;41155;39.768;2.712;2023-02-28T07:02:46;63.42;;;17.63;;
55290;SDS011;41155;39.768;2.712;2023-02-28T07:05:12;61.67;;;18.20;;
55290;SDS011;41155;39.768;2.712;2023-02-28T07:07:38;73.28;;;19.80;;
55290;SDS011;41155;39.768;2.712;2023-02-28T07:10:05;82.50;;;19.02;;
55290;SDS011;41155;39.768;2.712;2023-02-28T07:12:31;73.00;;;18.38;;
55290;SDS011;41155;39.768;2.712;2023-02-28T07:14:57;50.30;;;16.98;;
55290;SDS011;41155;39.768;2.712;2023-02-28T07:17:23;58.78;;;17.30;;
55290;SDS011;41155;39.768;2.712;2023-02-28T07:19:48;48.95;;;15.10;;
55290;SDS011;41155;39.768;2.712;2023-02-28T07:22:14;68.88;;;17.83;;
55290;SDS011;41155;39.768;2.712;2023-02-28T07:24:39;91.03;;;18.25;;
55290;SDS011;41155;39.768;2.712;2023-02-28T07:27:04;72.57;;;18.38;;
55290;SDS011;41155;39.768;2.712;2023-02-28T07:29:30;75.35;;;17.23;;
55290;SDS011;41155;39.768;2.712;2023-02-28T07:31:55;62.03;;;18.48;;
55290;SDS011;41155;39.768;2.712;2023-02-28T07:34:21;67.18;;;19.60;;
55290;SDS011;41155;39.768;2.712;2023-02-28T07:36:47;76.47;;;18.65;;
55290;SDS011;41155;39.768;2.712;2023-02-28T07:39:13;50.05;;;15.27;;
55290;SDS011;41155;39.768;2.712;2023-02-28T07:41:38;71.47;;;17.38;;
55290;SDS011;41155;39.768;2.712;2023-02-28T07:44:09;69.30;;;16.75;;
55290;SDS011;41155;39.768;2.712;2023-02-28T07:46:35;78.22;;;18.50;;
55290;SDS011;41155;39.768;2.712;2023-02-28T07:49:01;70.18;;;19.38;;
55290;SDS011;41155;39.768;2.712;2023-02-28T07:51:28;61.42;;;16.60;;
55290;SDS011;41155;39.768;2.712;2023-02-28T07:53:54;65.15;;;16.45;;
55290;SDS011;41155;39.768;2.712;2023-02-28T07:56:20;51.45;;;16.02;;
55290;SDS011;41155;39.768;2.712;2023-02-28T07:58:45;54.95;;;15.45;;
55290;SDS011;41155;39.768;2.712;2023-02-28T08:01:11;41.05;;;13.57;;
55290;SDS011;41155;39.768;2.712;2023-02-28T08:03:37;54.70;;;14.90;;
55290;SDS011;41155;39.768;2.712;2023-02-28T08:06:03;62.95;;;15.45;;
55290;SDS011;41155;39.768;2.712;2023-02-28T08:08:30;53.08;;;15.32;;
55290;SDS011;41155;39.768;2.712;2023-02-28T08:11:00;67.68;;;16.83;;
55290;SDS011;41155;39.768;2.712;2023-02-28T08:13:27;63.40;;;16.67;;
55290;SDS011;41155;39.768;2.712;2023-02-28T08:15:54;53.15;;;15.90;;
55290;SDS011;41155;39.768;2.712;2023-02-28T08:18:21;42.67;;;14.30;;
55290;SDS011;41155;39.768;2.712;2023-02-28T08:20:47;70.43;;;16.58;;
55290;SDS011;41155;39.768;2.712;2023-02-28T08:23:12;66.78;;;19.88;;
55290;SDS011;41155;39.768;2.712;2023-02-28T08:25:38;59.45;;;15.95;;
55290;SDS011;41155;39.768;2.712;2023-02-28T08:28:04;48.97;;;14.52;;
55290;SDS011;41155;39.768;2.712;2023-02-28T08:30:29;60.28;;;18.75;;
55290;SDS011;41155;39.768;2.712;2023-02-28T08:32:55;62.17;;;17.70;;
55290;SDS011;41155;39.768;2.712;2023-02-28T08:35:21;54.67;;;16.80;;
55290;SDS011;41155;39.768;2.712;2023-02-28T08:37:49;50.97;;;16.30;;
55290;SDS011;41155;39.768;2.712;2023-02-28T08:40:15;41.67;;;14.95;;
55290;SDS011;41155;39.768;2.712;2023-02-28T08:42:46;47.08;;;16.92;;
55290;SDS011;41155;39.768;2.712;2023-02-28T08:45:12;57.20;;;17.70;;
55290;SDS011;41155;39.768;2.712;2023-02-28T08:47:39;62.00;;;17.00;;
55290;SDS011;41155;39.768;2.712;2023-02-28T08:50:05;38.30;;;15.27;;
55290;SDS011;41155;39.768;2.712;2023-02-28T08:52:31;55.70;;;15.70;;
55290;SDS011;41155;39.768;2.712;2023-02-28T08:54:57;48.65;;;15.70;;
55290;SDS011;41155;39.768;2.712;2023-02-28T08:57:22;51.70;;;14.55;;
55290;SDS011;41155;39.768;2.712;2023-02-28T08:59:48;54.08;;;16.13;;
55290;SDS011;41155;39.768;2.712;2023-02-28T09:02:13;84.45;;;17.27;;
55290;SDS011;41155;39.768;2.712;2023-02-28T09:04:39;48.88;;;15.38;;
55290;SDS011;41155;39.768;2.712;2023-02-28T09:07:05;46.97;;;17.13;;
55290;SDS011;41155;39.768;2.712;2023-02-28T09:09:31;64.95;;;16.70;;
55290;SDS011;41155;39.768;2.712;2023-02-28T09:11:56;56.97;;;16.70;;
55290;SDS011;41155;39.768;2.712;2023-02-28T09:14:22;69.18;;;18.40;;
55290;SDS011;41155;39.768;2.712;2023-02-28T09:16:47;68.78;;;17.05;;
55290;SDS011;41155;39.768;2.712;2023-02-28T09:19:13;60.63;;;17.33;;
55290;SDS011;41155;39.768;2.712;2023-02-28T09:21:39;35.40;;;13.05;;
55290;SDS011;41155;39.768;2.712;2023-02-28T09:24:05;72.88;;;19.60;;
55290;SDS011;41155;39.768;2.712;2023-02-28T09:26:30;66.65;;;18.55;;
55290;SDS011;41155;39.768;2.712;2023-02-28T09:28:56;81.20;;;16.88;;
55290;SDS011;41155;39.768;2.712;2023-02-28T09:31:24;53.97;;;16.88;;
55290;SDS011;41155;39.768;2.712;2023-02-28T09:33:53;43.50;;;14.18;;
55290;SDS011;41155;39.768;2.712;2023-02-28T09:36:21;52.50;;;16.17;;
55290;SDS011;41155;39.768;2.712;2023-02-28T09:38:48;51.95;;;16.67;;
55290;SDS011;41155;39.768;2.712;2023-02-28T09:41:17;63.63;;;15.05;;
55290;SDS011;41155;39.768;2.712;2023-02-28T09:43:55;58.65;;;17.10;;
55290;SDS011;41155;39.768;2.712;2023-02-28T09:49:05;57.88;;;16.35;;
55290;SDS011;41155;39.768;2.712;2023-02-28T09:54:16;44.90;;;16.52;;
55290;SDS011;41155;39.768;2.712;2023-02-28T09:56:55;73.90;;;17.77;;
55290;SDS011;41155;39.768;2.712;2023-02-28T10:02:13;62.50;;;17.77;;
55290;SDS011;41155;39.768;2.712;2023-02-28T10:07:30;79.50;;;17.08;;
55290;SDS011;41155;39.768;2.712;2023-02-28T10:10:01;49.47;;;14.57;;
55290;SDS011;41155;39.768;2.712;2023-02-28T10:12:30;52.05;;;15.27;;
55290;SDS011;41155;39.768;2.712;2023-02-28T10:14:58;52.03;;;17.58;;
55290;SDS011;41155;39.768;2.712;2023-02-28T10:17:32;64.30;;;19.75;;
55290;SDS011;41155;39.768;2.712;2023-02-28T10:20:12;61.97;;;16.38;;
55290;SDS011;41155;39.768;2.712;2023-02-28T10:22:57;43.38;;;16.45;;
55290;SDS011;41155;39.768;2.712;2023-02-28T10:25:42;62.58;;;18.33;;
55290;SDS011;41155;39.768;2.712;2023-02-28T10:28:16;64.70;;;17.02;;
55290;SDS011;41155;39.768;2.712;2023-02-28T10:30:52;83.70;;;18.58;;
55290;SDS011;41155;39.768;2.712;2023-02-28T10:33:20;67.05;;;19.80;;
55290;SDS011;41155;39.768;2.712;2023-02-28T10:35:53;38.80;;;14.52;;
55290;SDS011;41155;39.768;2.712;2023-02-28T10:38:38;50.42;;;17.65;;
55290;SDS011;41155;39.768;2.712;2023-02-28T10:43:35;75.13;;;18.45;;
55290;SDS011;41155;39.768;2.712;2023-02-28T10:50:59;58.63;;;17.90;;
55290;SDS011;41155;39.768;2.712;2023-02-28T10:53:34;55.50;;;17.73;;
55290;SDS011;41155;39.768;2.712;2023-02-28T10:56:21;57.22;;;16.98;;
55290;SDS011;41155;39.768;2.712;2023-02-28T10:58:55;57.90;;;17.35;;
55290;SDS011;41155;39.768;2.712;2023-02-28T11:03:58;65.68;;;18.90;;
55290;SDS011;41155;39.768;2.712;2023-02-28T11:06:30;62.70;;;16.08;;
55290;SDS011;41155;39.768;2.712;2023-02-28T11:08:58;54.47;;;16.70;;
55290;SDS011;41155;39.768;2.712;2023-02-28T11:11:27;52.88;;;17.92;;
55290;SDS011;41155;39.768;2.712;2023-02-28T11:13:57;67.97;;;20.65;;
55290;SDS011;41155;39.768;2.712;2023-02-28T11:16:35;53.78;;;16.42;;
55290;SDS011;41155;39.768;2.712;2023-02-28T11:21:31;51.53;;;15.52;;
55290;SDS011;41155;39.768;2.712;2023-02-28T11:24:04;44.40;;;14.07;;
55290;SDS011;41155;39.768;2.712;2023-02-28T11:26:46;47.03;;;14.30;;
55290;SDS011;41155;39.768;2.712;2023-02-28T11:29:17;66.03;;;19.85;;
55290;SDS011;41155;39.768;2.712;2023-02-28T11:34:43;44.70;;;16.15;;
55290;SDS011;41155;39.768;2.712;2023-02-28T11:37:14;51.80;;;16.23;;
55290;SDS011;41155;39.768;2.712;2023-02-28T11:39:43;66.28;;;18.70;;
55290;SDS011;41155;39.768;2.712;2023-02-28T11:52:34;55.58;;;16.55;;
55290;SDS011;41155;39.768;2.712;2023-02-28T11:55:19;61.17;;;16.52;;
55290;SDS011;41155;39.768;2.712;2023-02-28T12:00:54;57.50;;;18.98;;
55290;SDS011;41155;39.768;2.712;2023-02-28T12:03:45;40.95;;;15.57;;
55290;SDS011;41155;39.768;2.712;2023-02-28T12:19:41;52.40;;;16.80;;
55290;SDS011;41155;39.768;2.712;2023-02-28T12:25:50;49.70;;;17.02;;
55290;SDS011;41155;39.768;2.712;2023-02-28T12:28:25;57.75;;;17.60;;
55290;SDS011;41155;39.768;2.712;2023-02-28T12:30:58;57.35;;;18.88;;
55290;SDS011;41155;39.768;2.712;2023-02-28T12:33:34;62.90;;;20.52;;
55290;SDS011;41155;39.768;2.712;2023-02-28T12:36:08;60.85;;;17.73;;
55290;SDS011;41155;39.768;2.712;2023-02-28T12:38:43;67.93;;;20.08;;
55290;SDS011;41155;39.768;2.712;2023-02-28T12:41:17;69.18;;;19.40;;
55290;SDS011;41155;39.768;2.712;2023-02-28T12:44:06;76.50;;;20.42;;
55290;SDS011;41155;39.768;2.712;2023-02-28T12:46:38;69.15;;;21.60;;
55290;SDS011;41155;39.768;2.712;2023-02-28T12:49:21;75.13;;;20.80;;
55290;SDS011;41155;39.768;2.712;2023-02-28T12:52:01;57.08;;;16.65;;
55290;SDS011;41155;39.768;2.712;2023-02-28T12:54:31;71.57;;;18.20;;
55290;SDS011;41155;39.768;2.712;2023-02-28T12:57:47;61.25;;;18.80;;
55290;SDS011;41155;39.768;2.712;2023-02-28T13:00:35;60.13;;;19.30;;
55290;SDS011;41155;39.768;2.712;2023-02-28T13:27:46;69.68;;;17.85;;
55290;SDS011;41155;39.768;2.712;2023-02-28T13:35:44;64.43;;;18.50;;
55290;SDS011;41155;39.768;2.712;2023-02-28T13:38:21;54.95;;;18.45;;
55290;SDS011;41155;39.768;2.712;2023-02-28T13:40:49;78.47;;;17.27;;
55290;SDS011;41155;39.768;2.712;2023-02-28T13:43:16;56.08;;;17.45;;
55290;SDS011;41155;39.768;2.712;2023-02-28T13:46:03;61.55;;;16.83;;
55290;SDS011;41155;39.768;2.712;2023-02-28T13:48:36;56.25;;;18.15;;
55290;SDS011;41155;39.768;2.712;2023-02-28T13:51:25;76.45;;;19.10;;
55290;SDS011;41155;39.768;2.712;2023-02-28T13:54:32;62.08;;;17.35;;
55290;SDS011;41155;39.768;2.712;2023-02-28T14:11:04;63.72;;;18.50;;
55290;SDS011;41155;39.768;2.712;2023-02-28T14:16:13;50.88;;;18.35;;
55290;SDS011;41155;39.768;2.712;2023-02-28T14:18:48;66.07;;;19.52;;
55290;SDS011;41155;39.768;2.712;2023-02-28T14:21:20;49.45;;;17.92;;
55290;SDS011;41155;39.768;2.712;2023-02-28T14:24:24;55.25;;;16.92;;
55290;SDS011;41155;39.768;2.712;2023-02-28T14:27:08;54.45;;;14.63;;
55290;SDS011;41155;39.768;2.712;2023-02-28T14:35:13;58.45;;;18.27;;
55290;SDS011;41155;39.768;2.712;2023-02-28T14:37:49;43.65;;;15.98;;
55290;SDS011;41155;39.768;2.712;2023-02-28T14:40:16;54.55;;;17.17;;
55290;SDS011;41155;39.768;2.712;2023-02-28T14:43:04;45.05;;;14.10;;
55290;SDS011;41155;39.768;2.712;2023-02-28T14:45:32;55.08;;;16.33;;
55290;SDS011;41155;39.768;2.712;2023-02-28T14:48:00;40.10;;;15.32;;
55290;SDS011;41155;39.768;2.712;2023-02-28T14:50:31;44.28;;;16.08;;
55290;SDS011;41155;39.768;2.712;2023-02-28T14:53:01;57.30;;;15.10;;
55290;SDS011;41155;39.768;2.712;2023-02-28T14:55:29;45.53;;;15.43;;
55290;SDS011;41155;39.768;2.712;2023-02-28T14:58:00;40.88;;;14.32;;
55290;SDS011;41155;39.768;2.712;2023-02-28T15:00:46;46.38;;;14.85;;
55290;SDS011;41155;39.768;2.712;2023-02-28T15:03:23;48.35;;;15.02;;
55290;SDS011;41155;39.768;2.712;2023-02-28T15:06:03;47.45;;;16.67;;
55290;SDS011;41155;39.768;2.712;2023-02-28T15:08:31;45.42;;;16.20;;
55290;SDS011;41155;39.768;2.712;2023-02-28T15:11:13;49.80;;;17.17;;
55290;SDS011;41155;39.768;2.712;2023-02-28T15:13:53;48.28;;;15.55;;
55290;SDS011;41155;39.768;2.712;2023-02-28T15:16:28;33.13;;;13.50;;
55290;SDS011;41155;39.768;2.712;2023-02-28T15:19:08;38.30;;;14.93;;
55290;SDS011;41155;39.768;2.712;2023-02-28T15:21:43;57.03;;;18.73;;
55290;SDS011;41155;39.768;2.712;2023-02-28T15:26:50;38.42;;;16.67;;
55290;SDS011;41155;39.768;2.712;2023-02-28T15:29:20;39.97;;;15.48;;
55290;SDS011;41155;39.768;2.712;2023-02-28T15:31:48;45.67;;;16.17;;
55290;SDS011;41155;39.768;2.712;2023-02-28T15:34:20;45.75;;;18.38;;
55290;SDS011;41155;39.768;2.712;2023-02-28T15:36:47;50.10;;;16.67;;
55290;SDS011;41155;39.768;2.712;2023-02-28T15:39:24;54.63;;;18.38;;
55290;SDS011;41155;39.768;2.712;2023-02-28T15:41:52;54.88;;;17.25;;
55290;SDS011;41155;39.768;2.712;2023-02-28T15:44:34;54.00;;;17.00;;
55290;SDS011;41155;39.768;2.712;2023-02-28T15:49:44;55.80;;;15.32;;
55290;SDS011;41155;39.768;2.712;2023-02-28T15:52:13;40.30;;;15.88;;
55290;SDS011;41155;39.768;2.712;2023-02-28T15:54:42;32.10;;;13.98;;
55290;SDS011;41155;39.768;2.712;2023-02-28T15:57:13;40.17;;;14.23;;
55290;SDS011;41155;39.768;2.712;2023-02-28T15:59:56;32.03;;;15.18;;
55290;SDS011;41155;39.768;2.712;2023-02-28T16:05:17;41.05;;;14.25;;
55290;SDS011;41155;39.768;2.712;2023-02-28T16:07:59;41.70;;;21.40;;
55290;SDS011;41155;39.768;2.712;2023-02-28T16:10:38;59.05;;;20.35;;
55290;SDS011;41155;39.768;2.712;2023-02-28T16:13:04;50.42;;;19.33;;
55290;SDS011;41155;39.768;2.712;2023-02-28T16:15:30;43.67;;;16.30;;
55290;SDS011;41155;39.768;2.712;2023-02-28T16:18:10;52.60;;;17.38;;
55290;SDS011;41155;39.768;2.712;2023-02-28T16:20:37;28.73;;;12.60;;
55290;SDS011;41155;39.768;2.712;2023-02-28T16:23:03;39.47;;;16.75;;
55290;SDS011;41155;39.768;2.712;2023-02-28T16:25:33;40.42;;;14.77;;
55290;SDS011;41155;39.768;2.712;2023-02-28T16:28:01;43.95;;;14.98;;
55290;SDS011;41155;39.768;2.712;2023-02-28T16:30:27;42.15;;;13.68;;
55290;SDS011;41155;39.768;2.712;2023-02-28T16:32:57;42.47;;;14.93;;
55290;SDS011;41155;39.768;2.712;2023-02-28T16:35:24;42.60;;;18.00;;
55290;SDS011;41155;39.768;2.712;2023-02-28T16:37:50;55.00;;;19.75;;
55290;SDS011;41155;39.768;2.712;2023-02-28T16:40:20;40.30;;;14.70;;
55290;SDS011;41155;39.768;2.712;2023-02-28T16:42:48;57.75;;;14.68;;
55290;SDS011;41155;39.768;2.712;2023-02-28T16:45:17;56.22;;;15.45;;
55290;SDS011;41155;39.768;2.712;2023-02-28T16:47:45;54.90;;;16.10;;
55290;SDS011;41155;39.768;2.712;2023-02-28T16:50:44;63.67;;;17.10;;
55290;SDS011;41155;39.768;2.712;2023-02-28T16:53:02;51.00;;;19.33;;
55290;SDS011;41155;39.768;2.712;2023-02-28T16:55:28;41.15;;;14.07;;
55290;SDS011;41155;39.768;2.712;2023-02-28T16:57:54;51.67;;;15.95;;
55290;SDS011;41155;39.768;2.712;2023-02-28T17:00:21;47.17;;;17.40;;
55290;SDS011;41155;39.768;2.712;2023-02-28T17:02:48;47.47;;;16.27;;
55290;SDS011;41155;39.768;2.712;2023-02-28T17:05:13;54.63;;;16.77;;
55290;SDS011;41155;39.768;2.712;2023-02-28T17:07:40;46.00;;;17.67;;
55290;SDS011;41155;39.768;2.712;2023-02-28T17:10:15;52.22;;;18.98;;
55290;SDS011;41155;39.768;2.712;2023-02-28T17:12:40;41.35;;;16.38;;